Alleghany, CA (95910)

12:59 AM PST on February 09, 2016 (GMT -0800)
MAP | | Change Station
CLOSE
Current Station
Personal Weather Station
Location: Soda Springs, CA
Elevation: 5754 ft
Nearby Weather Stations

Elev 5754 ft 39.31 °N, 120.52 °W | Updated 59 minutes ago

Partly Cloudy
Partly Cloudy
37 °F
Feels Like 37 °F
N
3
Wind Variable Wind from NNE
Gusts 0.0 mph

Today
High -- | Low -- °F
--% Chance of Precip.
Yesterday
High -- | Low -- °F
Precip. -- in
Pressure 30.17 in
Visibility 10.0 miles
Clouds Clear
Windchill 37 °F
Dew Point 25 °F
Humidity 59%
Rainfall in
Snow Depth Not available.
7:02 AM 5:31 PM
New Moon, 1% visible
METAR KBLU 090852Z AUTO 06004KT 10SM CLR 14/M11 A3038 RMK AO2 SLP217 T01441111 58002
Pressure 30.17 in
Visibility 10.0 miles
Clouds Clear
Windchill 37 °F
Dew Point 25 °F
Humidity 59%
Rainfall in
Snow Depth Not available.
7:02 AM 5:31 PM
New Moon, 1% visible
METAR KBLU 090852Z AUTO 06004KT 10SM CLR 14/M11 A3038 RMK AO2 SLP217 T01441111 58002

10-Day Weather Forecast

Almanac

Astronomy

Feb. 09, 2016 Rise Set
Actual Time
Civil Twilight
Nautical Twilight
Astronomical Twilight
Moon
Length of Visible Light
Length of Day
Tomorrow will be .
, % of the Moon is Illuminated

Today's Extremes

State Highs State Lows

Community

WunderPhotos

Upload Photos

1,891,571 photos uploaded!

WunderBlog® & News

Nearby

Air Quality

  Air Quality AQ Index Pollutant
Not available.

Snow Depth

Station Depth Elevation

Earthquake Activity

City Distance Mag. Time & Date
Minimum magnitude displayed is 2.5.

Coastal Water Temperatures

Place Temperature

Stations

Nearby Weather Stations

Station Location Temp. Windchill Dew Point Humidity Wind Precip. Elev Updated Type
                   

Watches & Warnings

There are currently no watches in effect.